Time;durP1;ratioP1;P1;durP2;ratioP2;P2;SDS_P1;SDS_P2;PMS_P1;PMS_P2;Temp;Humidity;BMP_temperature;BMP_pressure;BME280_temperature;BME280_humidity;BME280_pressure;Samples;Min_cycle;Max_cycle;Signal;HPM_P1;HPM_P2
2024/01/29 00:02:15;;;;;;;;;;;;;;;4.02;68.79;96732.97;5053727;28;956;-58
2024/01/29 00:04:49;;;;;;;;;;;;;;;4.03;68.93;96727.59;5053852;28;985;-58
2024/01/29 00:07:24;;;;;;;;;;;;;;;4.09;68.66;96732.56;5053544;28;1016;-58
2024/01/29 00:09:58;;;;;;;;;;;;;;;4.05;69.13;96733.66;5053497;28;1013;-58
2024/01/29 00:12:32;;;;;;;;;;;;;;;4.10;69.00;96731.63;5053307;28;1557;-57
2024/01/29 00:15:06;;;;;;;;;;;;;;;4.17;68.29;96733.94;5053436;28;945;-58
2024/01/29 00:17:40;;;;;;;;;;;;;;;4.26;67.55;96736.09;5053459;28;1873;-58
2024/01/29 00:20:15;;;;;;;;;;;;;;;4.23;67.79;96739.78;5053334;28;1902;-58
2024/01/29 00:22:49;;;;;;;;;;;;;;;4.05;68.40;96746.91;5053592;28;958;-58
2024/01/29 00:25:23;;;;;;;;;;;;;;;4.05;68.77;96746.03;5053469;28;903;-58
2024/01/29 00:27:58;;;;;;;;;;;;;;;4.10;68.52;96739.56;5053370;28;1024;-58
2024/01/29 00:30:32;;;;;;;;;;;;;;;4.17;68.68;96744.53;5053397;28;922;-58
2024/01/29 00:33:06;;;;;;;;;;;;;;;4.06;70.29;96735.38;5053086;28;929;-58
2024/01/29 00:35:41;;;;;;;;;;;;;;;3.97;68.93;96733.22;5053349;28;954;-58
2024/01/29 00:38:15;;;;;;;;;;;;;;;4.05;69.62;96738.94;5053290;28;949;-58
2024/01/29 00:40:49;;;;;;;;;;;;;;;4.02;69.00;96741.78;5053393;28;938;-58
2024/01/29 00:43:23;;;;;;;;;;;;;;;3.94;70.17;96743.13;5053150;28;997;-58
2024/01/29 00:45:58;;;;;;;;;;;;;;;3.98;68.97;96744.66;5053058;28;963;-58
2024/01/29 00:48:32;;;;;;;;;;;;;;;3.94;69.89;96735.19;5053134;28;989;-58
2024/01/29 00:51:07;;;;;;;;;;;;;;;3.93;69.06;96739.63;5052997;28;910;-58
2024/01/29 00:53:41;;;;;;;;;;;;;;;3.88;69.79;96739.84;5040728;28;1212;-58
2024/01/29 00:56:15;;;;;;;;;;;;;;;3.85;70.17;96744.44;5033172;28;1020;-58
2024/01/29 00:58:50;;;;;;;;;;;;;;;3.84;70.92;96742.75;5036406;28;1980;-58
2024/01/29 01:01:24;;;;;;;;;;;;;;;3.77;70.88;96739.56;5036974;28;996;-57
2024/01/29 01:03:58;;;;;;;;;;;;;;;3.91;69.84;96739.69;5037111;28;962;-58
2024/01/29 01:06:32;;;;;;;;;;;;;;;3.99;69.41;96749.88;5036794;28;977;-58
2024/01/29 01:09:09;;;;;;;;;;;;;;;3.94;68.74;96737.81;5037228;28;933;-58
2024/01/29 01:11:43;;;;;;;;;;;;;;;3.89;70.01;96751.31;5036911;28;993;-58
2024/01/29 01:14:17;;;;;;;;;;;;;;;3.98;69.04;96750.78;5036653;28;1248;-58
2024/01/29 01:16:51;;;;;;;;;;;;;;;3.96;69.83;96747.38;5036760;28;985;-58
2024/01/29 01:19:26;;;;;;;;;;;;;;;3.79;70.46;96742.13;5036819;28;1914;-57
2024/01/29 01:22:00;;;;;;;;;;;;;;;3.83;70.24;96744.56;5036673;28;1043;-58
2024/01/29 01:24:34;;;;;;;;;;;;;;;3.74;70.37;96747.69;5036636;28;953;-58
2024/01/29 01:27:10;;;;;;;;;;;;;;;3.80;70.02;96744.69;5035562;28;907;-58
2024/01/29 01:29:44;;;;;;;;;;;;;;;3.91;69.01;96752.94;5036984;28;977;-58
2024/01/29 01:32:19;;;;;;;;;;;;;;;3.85;69.68;96747.97;5036484;28;1080;-58
2024/01/29 01:34:53;;;;;;;;;;;;;;;3.81;69.78;96748.19;5036840;28;1024;-58
2024/01/29 01:37:27;;;;;;;;;;;;;;;3.69;69.97;96742.59;5036446;28;918;-58
2024/01/29 01:40:04;;;;;;;;;;;;;;;3.68;69.95;96740.91;5036342;28;1910;-58
2024/01/29 01:42:39;;;;;;;;;;;;;;;3.72;70.53;96741.63;5036331;28;977;-58
2024/01/29 01:45:13;;;;;;;;;;;;;;;3.70;70.44;96743.47;5036479;28;990;-58
2024/01/29 01:47:48;;;;;;;;;;;;;;;3.78;69.87;96743.09;5036232;28;946;-58
2024/01/29 01:50:22;;;;;;;;;;;;;;;3.88;69.98;96744.28;5036408;28;921;-58
2024/01/29 01:52:57;;;;;;;;;;;;;;;3.76;70.56;96740.50;5042216;28;1158;-58
2024/01/29 01:55:30;;;;;;;;;;;;;;;3.76;70.13;96739.66;5056086;28;959;-58
2024/01/29 01:58:05;;;;;;;;;;;;;;;3.80;69.86;96743.84;5056039;28;1008;-58
2024/01/29 02:00:39;;;;;;;;;;;;;;;3.75;70.86;96746.72;5055637;28;1997;-58
2024/01/29 02:03:13;;;;;;;;;;;;;;;3.72;70.02;96739.81;5056067;28;990;-58
2024/01/29 02:05:48;;;;;;;;;;;;;;;3.80;70.33;96741.22;5055029;28;1014;-58
2024/01/29 02:08:23;;;;;;;;;;;;;;;3.86;70.04;96738.22;5055841;28;952;-58
2024/01/29 02:10:57;;;;;;;;;;;;;;;3.78;70.32;96743.09;5055459;28;933;-58
2024/01/29 02:13:32;;;;;;;;;;;;;;;3.79;70.00;96742.97;5055574;28;1204;-58
2024/01/29 02:16:06;;;;;;;;;;;;;;;3.74;70.67;96744.16;5055691;28;1567;-58
2024/01/29 02:18:41;;;;;;;;;;;;;;;3.81;70.15;96740.25;5055577;28;1913;-58
2024/01/29 02:21:15;;;;;;;;;;;;;;;3.79;69.91;96737.69;5055483;28;1180;-58
2024/01/29 02:23:49;;;;;;;;;;;;;;;3.75;70.90;96740.59;5055442;28;937;-58
2024/01/29 02:26:23;;;;;;;;;;;;;;;3.60;71.75;96739.59;5055601;28;938;-58
2024/01/29 02:28:58;;;;;;;;;;;;;;;3.61;71.39;96742.16;5055723;28;994;-58
2024/01/29 02:31:32;;;;;;;;;;;;;;;3.75;70.25;96733.50;5055393;28;930;-58
2024/01/29 02:34:06;;;;;;;;;;;;;;;3.56;70.95;96738.88;5055195;28;935;-58
2024/01/29 02:36:41;;;;;;;;;;;;;;;3.59;70.94;96735.25;5055231;28;977;-58
2024/01/29 02:39:15;;;;;;;;;;;;;;;3.63;70.54;96735.00;5055373;28;1906;-58
2024/01/29 02:41:49;;;;;;;;;;;;;;;3.53;71.63;96736.41;5055448;28;1002;-58
2024/01/29 02:44:24;;;;;;;;;;;;;;;3.65;70.76;96741.06;5055276;28;982;-58
2024/01/29 02:46:58;;;;;;;;;;;;;;;3.61;70.83;96739.50;5055041;28;985;-58
2024/01/29 02:49:33;;;;;;;;;;;;;;;3.65;70.16;96749.00;5055260;28;1155;-58
2024/01/29 02:52:07;;;;;;;;;;;;;;;3.67;70.09;96749.78;5055235;28;954;-57
2024/01/29 02:54:40;;;;;;;;;;;;;;;3.65;70.38;96753.44;5035287;28;1768;-58
2024/01/29 02:57:14;;;;;;;;;;;;;;;3.78;69.72;96753.66;5035061;28;937;-57
2024/01/29 02:59:49;;;;;;;;;;;;;;;3.85;69.78;96753.25;5035178;28;1989;-58
2024/01/29 03:02:23;;;;;;;;;;;;;;;3.88;69.61;96755.72;5034739;28;957;-58
2024/01/29 03:04:57;;;;;;;;;;;;;;;3.82;70.27;96756.06;5034894;28;965;-58
2024/01/29 03:07:32;;;;;;;;;;;;;;;3.82;70.06;96755.22;5034681;28;940;-58
2024/01/29 03:10:06;;;;;;;;;;;;;;;3.70;71.35;96757.56;5034681;28;914;-58
2024/01/29 03:12:40;;;;;;;;;;;;;;;3.85;70.38;96758.56;5034663;28;1515;-59
2024/01/29 03:15:15;;;;;;;;;;;;;;;3.88;70.15;96765.47;5034871;28;1005;-58
2024/01/29 03:17:49;;;;;;;;;;;;;;;3.76;70.68;96758.19;5034542;28;998;-58
2024/01/29 03:20:23;;;;;;;;;;;;;;;3.79;70.44;96755.34;5034029;28;1973;-58
2024/01/29 03:22:58;;;;;;;;;;;;;;;3.80;69.62;96765.88;5034298;28;956;-58
2024/01/29 03:25:32;;;;;;;;;;;;;;;3.86;69.88;96764.69;5034425;28;988;-58
2024/01/29 03:28:06;;;;;;;;;;;;;;;3.74;70.61;96768.84;5034546;28;1568;-58
2024/01/29 03:30:40;;;;;;;;;;;;;;;3.71;70.51;96764.53;5033159;28;918;-58
2024/01/29 03:33:15;;;;;;;;;;;;;;;3.77;70.42;96759.88;5034458;28;966;-58
2024/01/29 03:35:50;;;;;;;;;;;;;;;3.82;70.29;96750.75;5034217;28;989;-58
2024/01/29 03:38:24;;;;;;;;;;;;;;;3.75;70.56;96749.38;5033093;28;933;-58
2024/01/29 03:40:57;;;;;;;;;;;;;;;3.83;70.35;96747.19;5034263;28;2126;-58
2024/01/29 03:43:31;;;;;;;;;;;;;;;3.85;69.70;96741.78;5034243;28;941;-58
2024/01/29 03:46:06;;;;;;;;;;;;;;;3.83;69.87;96741.03;5034315;28;946;-58
2024/01/29 03:48:40;;;;;;;;;;;;;;;3.79;70.53;96732.38;5033991;28;969;-58
2024/01/29 03:51:13;;;;;;;;;;;;;;;3.74;70.25;96728.28;5033591;28;1442;-58
2024/01/29 03:53:45;;;;;;;;;;;;;;;3.76;70.19;96724.63;5046766;28;1482;-58
2024/01/29 03:56:19;;;;;;;;;;;;;;;3.81;69.90;96740.25;5053968;28;985;-58
2024/01/29 03:58:54;;;;;;;;;;;;;;;3.83;70.87;96738.38;5053709;28;1979;-58
2024/01/29 04:01:28;;;;;;;;;;;;;;;3.74;70.22;96742.38;5053629;28;925;-58
2024/01/29 04:04:03;;;;;;;;;;;;;;;3.86;70.19;96738.22;5053934;28;906;-58
2024/01/29 04:06:38;;;;;;;;;;;;;;;3.57;71.59;96740.63;5053622;28;960;-58
2024/01/29 04:09:19;;;;;;;;;;;;;;;3.56;70.98;96745.97;5053751;28;957;-58
2024/01/29 04:11:53;;;;;;;;;;;;;;;3.59;71.21;96754.63;5053524;28;925;-57
2024/01/29 04:14:25;;;;;;;;;;;;;;;3.53;71.10;96749.66;5053276;28;1168;-58
2024/01/29 04:17:00;;;;;;;;;;;;;;;3.60;70.99;96748.38;5053670;28;917;-58
2024/01/29 04:19:34;;;;;;;;;;;;;;;3.59;70.89;96748.47;5053480;28;1895;-57
2024/01/29 04:22:08;;;;;;;;;;;;;;;3.70;70.51;96743.47;5053392;28;929;-58
2024/01/29 04:24:42;;;;;;;;;;;;;;;3.63;70.58;96748.22;5053354;28;1135;-58
2024/01/29 04:27:15;;;;;;;;;;;;;;;3.62;70.71;96750.94;5053134;28;962;-57
2024/01/29 04:29:49;;;;;;;;;;;;;;;3.62;69.57;96749.16;5053546;28;918;-58
2024/01/29 04:32:23;;;;;;;;;;;;;;;3.63;68.98;96745.56;5053005;28;1033;-58
2024/01/29 04:34:56;;;;;;;;;;;;;;;3.56;69.53;96749.47;5053505;28;988;-59
2024/01/29 04:37:30;;;;;;;;;;;;;;;3.57;68.98;96751.19;5053079;28;929;-59
2024/01/29 04:40:03;;;;;;;;;;;;;;;3.57;69.73;96748.53;5051981;28;1913;-57
2024/01/29 04:42:37;;;;;;;;;;;;;;;3.59;70.38;96754.63;5052905;28;1393;-57
2024/01/29 04:45:10;;;;;;;;;;;;;;;3.48;70.81;96759.59;5053078;28;1516;-58
2024/01/29 04:47:44;;;;;;;;;;;;;;;3.50;70.27;96763.00;5053306;28;963;-57
2024/01/29 04:50:17;;;;;;;;;;;;;;;3.52;70.11;96769.94;5052859;28;1775;-58
2024/01/29 04:52:51;;;;;;;;;;;;;;;3.58;69.66;96765.25;5047799;28;1153;-58
2024/01/29 04:55:25;;;;;;;;;;;;;;;3.56;70.08;96773.28;5032874;28;1005;-57
2024/01/29 04:57:56;;;;;;;;;;;;;;;3.76;69.17;96776.72;5033232;28;1559;-57
2024/01/29 05:00:28;;;;;;;;;;;;;;;3.58;70.25;96781.13;5032786;28;2006;-56
2024/01/29 05:03:00;;;;;;;;;;;;;;;3.56;70.71;96783.00;5033213;28;1822;-57
2024/01/29 05:05:32;;;;;;;;;;;;;;;3.66;70.04;96790.41;5031749;28;1677;-55
2024/01/29 05:08:06;;;;;;;;;;;;;;;3.65;70.92;96788.69;5032869;28;1591;-57
2024/01/29 05:10:38;;;;;;;;;;;;;;;3.57;70.69;96793.50;5032089;28;1563;-58
2024/01/29 05:13:10;;;;;;;;;;;;;;;3.60;70.68;96797.78;5032883;28;1445;-58
2024/01/29 05:15:41;;;;;;;;;;;;;;;3.42;71.72;96791.66;5033226;28;1616;-57
2024/01/29 05:18:14;;;;;;;;;;;;;;;3.48;71.77;96796.63;5032989;28;1653;-58
2024/01/29 05:20:48;;;;;;;;;;;;;;;3.34;72.91;96792.03;5032769;28;2001;-58
2024/01/29 05:23:20;;;;;;;;;;;;;;;3.31;72.53;96803.59;5033049;28;1488;-58
2024/01/29 05:25:52;;;;;;;;;;;;;;;3.50;71.94;96803.53;5033045;28;1511;-58
2024/01/29 05:28:24;;;;;;;;;;;;;;;3.43;72.43;96811.84;5032961;28;1535;-57
2024/01/29 05:30:56;;;;;;;;;;;;;;;3.50;70.88;96807.97;5033042;28;1573;-57
2024/01/29 05:33:28;;;;;;;;;;;;;;;3.42;71.97;96807.50;5031796;28;1409;-58
2024/01/29 05:36:00;;;;;;;;;;;;;;;3.49;71.45;96808.91;5032822;28;1546;-58
2024/01/29 05:38:32;;;;;;;;;;;;;;;3.53;70.88;96805.19;5032882;28;1536;-58
2024/01/29 05:41:05;;;;;;;;;;;;;;;3.57;70.95;96814.69;5032654;28;1630;-57
2024/01/29 05:43:37;;;;;;;;;;;;;;;3.56;71.17;96818.25;5032920;28;1543;-57
2024/01/29 05:46:08;;;;;;;;;;;;;;;3.50;73.24;96818.56;5036155;28;1564;-57
2024/01/29 05:48:41;;;;;;;;;;;;;;;3.56;71.77;96818.25;5036434;28;1595;-58
2024/01/29 05:51:14;;;;;;;;;;;;;;;3.48;71.94;96815.13;5036467;28;2025;-57
2024/01/29 05:53:45;;;;;;;;;;;;;;;3.45;72.73;96815.28;5049329;28;1469;-57
2024/01/29 05:56:18;;;;;;;;;;;;;;;3.44;73.12;96821.50;5056291;28;1417;-57
2024/01/29 05:58:50;;;;;;;;;;;;;;;3.54;72.66;96820.09;5056052;28;1906;-58
2024/01/29 06:01:23;;;;;;;;;;;;;;;3.51;73.25;96826.41;5054954;28;1486;-57
2024/01/29 06:03:55;;;;;;;;;;;;;;;3.39;73.51;96834.09;5056307;28;1474;-58
2024/01/29 06:06:27;;;;;;;;;;;;;;;3.44;73.42;96837.38;5056175;28;1468;-59
2024/01/29 06:08:59;;;;;;;;;;;;;;;3.46;73.73;96839.00;5070605;28;1595;-60
2024/01/29 06:11:31;;;;;;;;;;;;;;;3.50;73.46;96834.41;5055956;28;1495;-60
2024/01/29 06:14:03;;;;;;;;;;;;;;;3.58;72.96;96845.47;5055624;28;1623;-60
2024/01/29 06:16:35;;;;;;;;;;;;;;;3.54;73.60;96841.28;5055890;28;1475;-59
2024/01/29 06:19:09;;;;;;;;;;;;;;;3.58;73.61;96842.81;5055748;28;1914;-60
2024/01/29 06:21:44;;;;;;;;;;;;;;;3.72;73.27;96845.66;5055888;28;1692;-60
2024/01/29 06:27:38;;;;;;;;;;;;;;;3.75;72.54;96854.34;5055715;28;712;-60
2024/01/29 06:30:10;;;;;;;;;;;;;;;3.86;72.86;96855.50;5055692;28;1504;-60
2024/01/29 06:32:43;;;;;;;;;;;;;;;3.91;73.01;96853.50;5055572;28;1640;-61
2024/01/29 06:35:18;;;;;;;;;;;;;;;4.16;71.11;96864.63;5055553;28;1546;-61
2024/01/29 06:37:50;;;;;;;;;;;;;;;4.25;70.58;96858.81;5055265;28;1476;-61
2024/01/29 06:40:27;;;;;;;;;;;;;;;4.37;70.56;96860.84;5055046;28;1902;-60
2024/01/29 06:42:59;;;;;;;;;;;;;;;4.36;70.57;96861.75;5055377;28;1540;-61
2024/01/29 06:45:31;;;;;;;;;;;;;;;4.21;71.37;96857.28;5055215;28;1646;-61
2024/01/29 06:48:05;;;;;;;;;;;;;;;4.36;70.42;96859.09;5054165;28;1591;-60
2024/01/29 06:50:39;;;;;;;;;;;;;;;4.32;71.01;96860.22;5055261;28;1543;-60
2024/01/29 06:53:11;;;;;;;;;;;;;;;4.23;70.46;96858.03;5055081;28;1591;-60
2024/01/29 06:55:42;;;;;;;;;;;;;;;4.10;70.96;96856.06;5054914;28;1468;-60
2024/01/29 06:58:14;;;;;;;;;;;;;;;4.18;71.14;96868.88;5054959;28;1635;-59
2024/01/29 07:00:47;;;;;;;;;;;;;;;4.33;70.96;96869.88;5053674;28;1910;-58
2024/01/29 07:03:19;;;;;;;;;;;;;;;4.47;69.06;96869.16;5054003;28;1095;-58
2024/01/29 07:05:48;;;;;;;;;;;;;;;4.79;68.16;96863.91;5054853;28;1029;-58
2024/01/29 07:08:16;;;;;;;;;;;;;;;4.97;67.17;96868.22;5054791;28;954;-58
2024/01/29 07:10:42;;;;;;;;;;;;;;;5.00;67.02;96872.47;5054846;28;1040;-58
2024/01/29 07:13:08;;;;;;;;;;;;;;;4.75;67.83;96871.16;5054625;28;1366;-58
2024/01/29 07:15:34;;;;;;;;;;;;;;;4.65;68.26;96857.56;5054898;28;1080;-58
2024/01/29 07:18:00;;;;;;;;;;;;;;;4.60;68.11;96869.34;5054623;28;1088;-58
2024/01/29 07:20:29;;;;;;;;;;;;;;;4.58;68.46;96872.06;5054435;28;1906;-59
2024/01/29 07:22:56;;;;;;;;;;;;;;;5.11;66.97;96872.75;5054556;28;970;-59
2024/01/29 07:25:22;;;;;;;;;;;;;;;5.13;66.13;96870.00;5054745;28;960;-59
2024/01/29 07:27:48;;;;;;;;;;;;;;;5.39;65.35;96881.81;5053449;28;1008;-59
2024/01/29 07:30:14;;;;;;;;;;;;;;;5.20;66.04;96868.72;5054447;28;965;-59
2024/01/29 07:32:40;;;;;;;;;;;;;;;5.19;66.47;96862.56;5054243;28;1024;-59
2024/01/29 07:35:07;;;;;;;;;;;;;;;5.38;65.10;96869.47;5054348;28;1068;-58
2024/01/29 07:37:33;;;;;;;;;;;;;;;5.31;66.18;96868.94;5054148;28;1019;-59
2024/01/29 07:39:59;;;;;;;;;;;;;;;5.40;64.97;96878.19;5054392;28;1910;-58
2024/01/29 07:42:25;;;;;;;;;;;;;;;5.46;65.25;96883.16;5054261;28;1026;-58
2024/01/29 07:44:51;;;;;;;;;;;;;;;5.28;66.18;96877.94;5054052;28;1064;-59
2024/01/29 07:47:17;;;;;;;;;;;;;;;5.30;66.38;96879.69;5054000;28;1026;-58
2024/01/29 07:49:43;;;;;;;;;;;;;;;5.30;65.77;96879.69;5054062;28;970;-58
2024/01/29 07:52:09;;;;;;;;;;;;;;;5.27;65.63;96881.56;5053858;28;1033;-59
2024/01/29 07:54:35;;;;;;;;;;;;;;;5.43;66.14;96883.34;5034170;28;1232;-59
2024/01/29 07:57:03;;;;;;;;;;;;;;;5.75;64.84;96888.59;5034234;28;966;-59
2024/01/29 07:59:29;;;;;;;;;;;;;;;5.75;63.94;96885.94;5032796;28;1914;-59
2024/01/29 08:01:55;;;;;;;;;;;;;;;5.62;64.47;96891.09;5033833;28;1068;-59
2024/01/29 08:04:21;;;;;;;;;;;;;;;6.07;62.91;96886.75;5034066;28;1053;-58
2024/01/29 08:06:47;;;;;;;;;;;;;;;6.34;61.45;96892.22;5033427;28;1058;-58
2024/01/29 08:09:13;;;;;;;;;;;;;;;6.32;62.76;96896.75;5033679;28;1119;-58
2024/01/29 08:11:39;;;;;;;;;;;;;;;6.30;62.57;96895.13;5032717;28;1048;-58
2024/01/29 08:14:05;;;;;;;;;;;;;;;5.96;62.56;96895.34;5033579;28;1082;-59
2024/01/29 08:16:31;;;;;;;;;;;;;;;5.67;63.23;96897.00;5033495;28;1037;-58
2024/01/29 08:18:58;;;;;;;;;;;;;;;5.93;62.29;96898.13;5033542;28;1910;-58
2024/01/29 08:21:24;;;;;;;;;;;;;;;5.72;63.17;96896.75;5033470;28;1037;-58
2024/01/29 08:23:50;;;;;;;;;;;;;;;5.95;62.74;96893.63;5033767;28;1060;-58
2024/01/29 08:26:16;;;;;;;;;;;;;;;6.09;62.62;96902.56;5033351;28;1088;-58
2024/01/29 08:28:42;;;;;;;;;;;;;;;6.11;62.61;96906.88;5033414;28;1080;-58
2024/01/29 08:31:09;;;;;;;;;;;;;;;6.16;61.95;96898.63;5033447;28;974;-59
2024/01/29 08:33:35;;;;;;;;;;;;;;;6.40;61.74;96904.28;5033319;28;992;-58
2024/01/29 08:36:01;;;;;;;;;;;;;;;6.57;61.10;96897.94;5033543;28;968;-58
2024/01/29 08:38:27;;;;;;;;;;;;;;;6.56;60.14;96913.00;5032234;28;966;-59
2024/01/29 08:40:54;;;;;;;;;;;;;;;6.31;61.34;96920.75;5033390;28;1979;-59
2024/01/29 08:43:20;;;;;;;;;;;;;;;6.29;61.57;96920.84;5033109;28;1071;-58
2024/01/29 08:45:46;;;;;;;;;;;;;;;6.13;62.40;96920.91;5033201;28;1068;-59
2024/01/29 08:48:12;;;;;;;;;;;;;;;6.29;62.05;96920.84;5032190;28;1053;-59
2024/01/29 08:50:38;;;;;;;;;;;;;;;6.33;60.54;96929.50;5033396;28;961;-59
2024/01/29 08:53:04;;;;;;;;;;;;;;;6.23;60.78;96923.88;5040194;28;1169;-59
2024/01/29 08:55:30;;;;;;;;;;;;;;;6.18;60.99;96926.78;5053272;28;1048;-59
2024/01/29 08:57:57;;;;;;;;;;;;;;;6.04;61.92;96930.25;5053134;28;988;-59
2024/01/29 09:00:23;;;;;;;;;;;;;;;6.02;61.18;96939.28;5052845;28;1979;-59
2024/01/29 09:02:52;;;;;;;;;;;;;;;5.63;63.22;96930.84;5051820;28;1091;-59
2024/01/29 09:05:18;;;;;;;;;;;;;;;5.72;62.57;96932.09;5052895;28;1037;-58
2024/01/29 09:07:44;;;;;;;;;;;;;;;5.90;61.00;96937.28;5052907;28;1048;-59
2024/01/29 09:10:10;;;;;;;;;;;;;;;5.83;61.30;96936.78;5053208;28;974;-59
2024/01/29 09:12:36;;;;;;;;;;;;;;;5.64;61.07;96937.84;5053040;28;1289;-60
2024/01/29 09:15:04;;;;;;;;;;;;;;;5.84;60.81;96939.38;5053121;28;996;-59
2024/01/29 09:17:30;;;;;;;;;;;;;;;5.76;61.14;96938.09;5052834;28;1023;-59
2024/01/29 09:19:57;;;;;;;;;;;;;;;5.63;62.60;96936.16;5054238;28;1914;-59
2024/01/29 09:22:23;;;;;;;;;;;;;;;5.33;62.65;96927.22;5056858;28;1024;-59
2024/01/29 09:24:49;;;;;;;;;;;;;;;5.37;63.59;96931.41;5057031;28;1042;-59
2024/01/29 09:27:15;;;;;;;;;;;;;;;5.37;63.98;96924.34;5056877;28;1081;-59
2024/01/29 09:29:41;;;;;;;;;;;;;;;5.53;63.07;96926.13;5056902;28;980;-59
2024/01/29 09:32:10;;;;;;;;;;;;;;;5.76;63.15;96932.78;5056523;28;1057;-59
2024/01/29 09:34:36;;;;;;;;;;;;;;;5.78;62.41;96922.94;5056362;28;1113;-59
2024/01/29 09:37:02;;;;;;;;;;;;;;;5.78;62.39;96917.63;5056840;28;1040;-59
2024/01/29 09:39:28;;;;;;;;;;;;;;;5.79;62.73;96914.03;5056452;28;1914;-59
2024/01/29 09:42:02;;;;;;;;;;;;;;;5.74;62.83;96916.09;5056662;28;1044;-59
2024/01/29 09:44:34;;;;;;;;;;;;;;;5.74;62.17;96916.94;5056278;28;1109;-59
2024/01/29 09:47:00;;;;;;;;;;;;;;;6.03;61.35;96922.38;5056324;28;1036;-59
2024/01/29 09:49:26;;;;;;;;;;;;;;;6.40;60.67;96917.56;5056417;28;1003;-59
2024/01/29 09:51:53;;;;;;;;;;;;;;;7.58;58.67;96919.97;5056195;28;1115;-59
2024/01/29 09:54:19;;;;;;;;;;;;;;;8.22;55.21;96925.53;5070845;28;1173;-60
2024/01/29 09:56:45;;;;;;;;;;;;;;;8.04;55.14;96919.59;5036354;28;1100;-60
2024/01/29 09:59:11;;;;;;;;;;;;;;;7.69;55.89;96909.47;5036259;28;1902;-59
2024/01/29 10:01:39;;;;;;;;;;;;;;;8.23;53.09;96916.56;5036073;28;1033;-59
2024/01/29 10:04:06;;;;;;;;;;;;;;;8.32;52.57;96921.25;5036301;28;1041;-59
2024/01/29 10:06:32;;;;;;;;;;;;;;;9.01;51.55;96909.50;5035877;28;1033;-60
2024/01/29 10:08:58;;;;;;;;;;;;;;;8.87;49.88;96913.13;5035924;28;1037;-60
2024/01/29 10:11:24;;;;;;;;;;;;;;;8.23;50.43;96905.03;5036017;28;1055;-58
2024/01/29 10:13:57;;;;;;;;;;;;;;;7.68;52.78;96897.09;5035569;28;1248;-59
2024/01/29 10:16:23;;;;;;;;;;;;;;;7.45;52.14;96884.44;5035739;28;1004;-58
2024/01/29 10:18:58;;;;;;;;;;;;;;;7.95;50.34;96889.13;5035973;28;1910;-58
2024/01/29 10:21:24;;;;;;;;;;;;;;;7.71;50.03;96898.72;5035555;28;1084;-58
2024/01/29 10:23:54;;;;;;;;;;;;;;;8.55;48.26;96895.72;5036011;28;1036;-58
2024/01/29 10:26:21;;;;;;;;;;;;;;;9.61;46.36;96902.53;5035570;28;1134;-57
2024/01/29 10:28:58;;;;;;;;;;;;;;;9.74;45.73;96900.66;5035461;28;1052;-58
2024/01/29 10:31:24;;;;;;;;;;;;;;;10.01;45.19;96897.75;5035306;28;1004;-58
2024/01/29 10:33:50;;;;;;;;;;;;;;;9.65;44.88;96906.66;5035585;28;961;-58
2024/01/29 10:36:16;;;;;;;;;;;;;;;10.01;43.73;96896.91;5035609;28;1210;-59
2024/01/29 10:38:44;;;;;;;;;;;;;;;10.26;44.09;96896.78;5035340;28;913;-59
2024/01/29 10:41:11;;;;;;;;;;;;;;;10.30;42.79;96903.63;5035607;28;973;-59
2024/01/29 10:43:38;;;;;;;;;;;;;;;10.06;40.80;96905.44;5035530;28;1056;-59
2024/01/29 10:46:07;;;;;;;;;;;;;;;9.82;39.31;96906.28;5034152;28;1040;-60
2024/01/29 10:48:33;;;;;;;;;;;;;;;8.87;40.21;96895.31;5035241;28;957;-59
2024/01/29 10:50:59;;;;;;;;;;;;;;;8.33;43.37;96884.81;5035128;28;1029;-59
2024/01/29 10:53:25;;;;;;;;;;;;;;;8.09;43.81;96879.34;5044940;28;1209;-59
2024/01/29 10:55:52;;;;;;;;;;;;;;;7.77;44.69;96872.53;5054891;28;1052;-59
2024/01/29 10:58:19;;;;;;;;;;;;;;;7.36;46.08;96869.91;5053901;28;1049;-59
2024/01/29 11:00:45;;;;;;;;;;;;;;;7.32;45.59;96868.41;5054802;28;1991;-59
2024/01/29 11:03:12;;;;;;;;;;;;;;;7.01;45.82;96865.06;5054824;28;982;-59
2024/01/29 11:05:39;;;;;;;;;;;;;;;6.60;46.06;96869.38;5054718;28;997;-59
2024/01/29 11:08:07;;;;;;;;;;;;;;;6.59;46.73;96856.16;5054635;28;1044;-59
2024/01/29 11:10:34;;;;;;;;;;;;;;;6.81;46.88;96861.88;5054579;28;966;-59
2024/01/29 11:13:01;;;;;;;;;;;;;;;6.52;45.84;96860.16;5054624;28;1327;-59
2024/01/29 11:15:27;;;;;;;;;;;;;;;6.42;46.97;96857.19;5054630;28;1004;-59
2024/01/29 11:17:55;;;;;;;;;;;;;;;6.71;45.85;96854.53;5054679;28;1052;-58
2024/01/29 11:20:22;;;;;;;;;;;;;;;6.74;45.86;96857.88;5054494;28;1910;-59
2024/01/29 11:22:52;;;;;;;;;;;;;;;6.61;45.88;96848.94;5054687;28;971;-58
2024/01/29 11:25:18;;;;;;;;;;;;;;;6.33;47.18;96847.97;5054207;28;978;-59
2024/01/29 11:27:49;;;;;;;;;;;;;;;6.31;48.04;96846.38;5054330;28;1079;-60
2024/01/29 11:30:15;;;;;;;;;;;;;;;6.44;48.31;96831.38;5054354;28;1032;-59
2024/01/29 11:32:41;;;;;;;;;;;;;;;6.65;48.02;96838.03;5053263;28;962;-60
2024/01/29 11:35:23;;;;;;;;;;;;;;;6.60;47.14;96840.13;5054168;28;1131;-58
2024/01/29 11:37:50;;;;;;;;;;;;;;;6.49;47.54;96841.72;5054371;28;1037;-59
2024/01/29 11:40:42;;;;;;;;;;;;;;;6.31;46.65;96849.88;5054159;28;1906;-59
2024/01/29 11:43:14;;;;;;;;;;;;;;;6.41;46.44;96842.19;5051422;28;1203;-59
2024/01/29 11:45:40;;;;;;;;;;;;;;;6.47;47.98;96844.50;5053943;28;1115;-58
2024/01/29 11:48:13;;;;;;;;;;;;;;;6.45;47.37;96844.59;5053928;28;1065;-59
2024/01/29 11:50:40;;;;;;;;;;;;;;;6.46;48.25;96842.78;5053912;28;1037;-58
2024/01/29 11:53:11;;;;;;;;;;;;;;;6.49;49.31;96833.75;5046709;28;1075;-59
2024/01/29 11:55:37;;;;;;;;;;;;;;;6.42;49.33;96842.09;5033891;28;1087;-59
2024/01/29 11:58:03;;;;;;;;;;;;;;;6.30;49.04;96828.72;5033825;28;1024;-59
2024/01/29 12:00:29;;;;;;;;;;;;;;;6.20;49.35;96836.38;5033717;28;1914;-59
2024/01/29 12:02:55;;;;;;;;;;;;;;;5.96;48.92;96833.44;5033676;28;1025;-59
2024/01/29 12:05:21;;;;;;;;;;;;;;;6.06;49.10;96830.09;5033857;28;1008;-60
2024/01/29 12:07:47;;;;;;;;;;;;;;;6.08;49.22;96822.06;5033996;28;961;-60
2024/01/29 12:10:14;;;;;;;;;;;;;;;5.94;49.60;96817.56;5033594;28;809;-60
2024/01/29 12:12:40;;;;;;;;;;;;;;;6.05;49.91;96814.25;5033717;28;1244;-60
2024/01/29 12:15:08;;;;;;;;;;;;;;;6.00;50.11;96809.25;5033895;28;1041;-60
2024/01/29 12:17:36;;;;;;;;;;;;;;;5.98;50.62;96807.63;5033493;28;985;-59
2024/01/29 12:20:02;;;;;;;;;;;;;;;6.19;50.81;96803.66;5033688;28;1989;-60
2024/01/29 12:22:28;;;;;;;;;;;;;;;6.31;51.38;96799.41;5033337;28;1024;-59
2024/01/29 12:24:56;;;;;;;;;;;;;;;6.43;50.68;96811.94;5033600;28;981;-59
2024/01/29 12:27:23;;;;;;;;;;;;;;;6.41;50.55;96805.00;5033369;28;973;-60
2024/01/29 12:29:49;;;;;;;;;;;;;;;6.13;50.50;96805.81;5033496;28;1064;-59
2024/01/29 12:32:20;;;;;;;;;;;;;;;6.19;50.98;96808.97;5033489;28;1072;-59
2024/01/29 12:34:46;;;;;;;;;;;;;;;6.30;50.57;96802.13;5033312;28;1024;-59
2024/01/29 12:37:22;;;;;;;;;;;;;;;6.38;50.10;96810.53;5033195;28;1047;-59
2024/01/29 12:39:52;;;;;;;;;;;;;;;6.25;50.05;96813.06;5033491;28;2321;-59
2024/01/29 12:42:18;;;;;;;;;;;;;;;6.27;49.73;96808.50;5033211;28;961;-59
2024/01/29 12:44:44;;;;;;;;;;;;;;;6.53;49.73;96804.25;5034130;28;1198;-58
2024/01/29 12:47:15;;;;;;;;;;;;;;;6.66;49.98;96807.00;5052669;28;1370;-58
2024/01/29 12:49:41;;;;;;;;;;;;;;;6.59;50.30;96806.50;5052781;28;1307;-58
2024/01/29 12:52:08;;;;;;;;;;;;;;;6.63;49.71;96810.69;5052868;28;1287;-58
2024/01/29 12:54:34;;;;;;;;;;;;;;;6.65;48.79;96810.59;5052354;28;1193;-59
2024/01/29 12:57:01;;;;;;;;;;;;;;;6.68;49.22;96802.44;5056649;28;1434;-59
2024/01/29 12:59:27;;;;;;;;;;;;;;;6.73;48.75;96802.97;5056568;28;1913;-58
2024/01/29 13:01:56;;;;;;;;;;;;;;;6.66;48.54;96799.03;5056948;28;1252;-58
2024/01/29 13:04:23;;;;;;;;;;;;;;;6.61;48.46;96803.75;5056574;28;1425;-58
2024/01/29 13:06:49;;;;;;;;;;;;;;;6.65;48.38;96799.97;5056871;28;1247;-59
2024/01/29 13:09:15;;;;;;;;;;;;;;;6.89;48.17;96810.00;5056453;28;1280;-58
2024/01/29 13:11:41;;;;;;;;;;;;;;;6.74;47.75;96807.34;5056641;28;1320;-58
2024/01/29 13:14:07;;;;;;;;;;;;;;;6.52;48.02;96807.00;5056277;28;1298;-58
2024/01/29 13:16:33;;;;;;;;;;;;;;;6.42;48.63;96807.56;5056036;28;1577;-58
2024/01/29 13:18:59;;;;;;;;;;;;;;;6.39;48.26;96809.56;5056252;28;1906;-59
2024/01/29 13:21:25;;;;;;;;;;;;;;;6.42;48.92;96809.38;5056264;28;1236;-59
2024/01/29 13:23:51;;;;;;;;;;;;;;;6.50;49.01;96808.91;5056229;28;1204;-58
2024/01/29 13:26:17;;;;;;;;;;;;;;;6.32;49.04;96813.53;5053393;28;1162;-58
2024/01/29 13:28:43;;;;;;;;;;;;;;;6.39;49.45;96818.41;5056132;28;1271;-59
2024/01/29 13:31:09;;;;;;;;;;;;;;;6.18;48.71;96817.03;5054870;28;1252;-59